Viscount, Canada
Current Conditions -  °F | °C
As of 2:00 PM on Monday 24 Nov 2014 (Local Time) from CYXE Reporting Station
Broken Clouds Broken Clouds  
Wind Chill:   Ceiling: 12000
Heat Index: 21°   Visibility: 15mi
Dew Point: 14°   Wind: 13mph
Humidity: 74%   Direction: 320°NW
Pressure: 29.95"   Gusts: NA
Location:  51.95°N, 105.63°W
Report Text: CYXE 242000Z 32011KT 15SM SCT022 BKN120 M06/M10 A2995 RMK SC3AC3 SLP183
Loading
Personal Weather Stations






























Interactive Weather Map New forecast layout! Learn more

10-Day Weather Forecast

Advertisements
Track Severe Weather on mobile